Time;durP1;ratioP1;P1;durP2;ratioP2;P2;SDS_P1;SDS_P2;PMS_P1;PMS_P2;Temp;Humidity;BMP_temperature;BMP_pressure;BME280_temperature;BME280_humidity;BME280_pressure;Samples;Min_cycle;Max_cycle;Signal;HPM_P1;HPM_P2
2023/07/20 00:04:41;;;;;;;20.58;5.68;;;;;;;;;;21089138;28;20040;-61
2023/07/20 00:14:42;;;;;;;15.60;5.28;;;;;;;;;;21089735;28;20051;-60
2023/07/20 00:24:43;;;;;;;17.80;5.85;;;;;;;;;;21088833;28;20048;-60
2023/07/20 00:34:44;;;;;;;36.78;19.95;;;;;;;;;;21088205;28;20048;-60
2023/07/20 00:44:46;;;;;;;19.38;6.55;;;;;;;;;;21087633;28;20056;-61
2023/07/20 00:54:47;;;;;;;21.42;7.35;;;;;;;;;;21086229;28;20052;-59
2023/07/20 01:04:49;;;;;;;34.28;15.32;;;;;;;;;;21085002;28;20044;-61
2023/07/20 01:14:50;;;;;;;14.15;5.50;;;;;;;;;;21083704;28;20036;-60
2023/07/20 01:25:05;;;;;;;14.95;5.03;;;;;;;;;;21083916;28;20623;-61
2023/07/20 01:35:07;;;;;;;13.07;5.20;;;;;;;;;;21083776;28;20076;-60
2023/07/20 01:45:08;;;;;;;21.48;6.70;;;;;;;;;;21081364;28;20056;-61
2023/07/20 01:55:09;;;;;;;22.73;7.53;;;;;;;;;;21081987;28;20048;-61
2023/07/20 02:05:10;;;;;;;16.55;5.10;;;;;;;;;;21079909;28;20054;-60
2023/07/20 02:15:13;;;;;;;12.57;3.80;;;;;;;;;;21078853;28;20040;-60
2023/07/20 02:25:14;;;;;;;18.05;6.78;;;;;;;;;;21079249;28;20036;-60
2023/07/20 02:35:15;;;;;;;15.23;5.72;;;;;;;;;;21079990;28;20059;-61
2023/07/20 02:45:17;;;;;;;12.52;4.15;;;;;;;;;;21080295;28;20056;-62
2023/07/20 02:55:19;;;;;;;17.80;3.83;;;;;;;;;;21079332;28;20040;-60
2023/07/20 03:05:20;;;;;;;12.05;3.75;;;;;;;;;;21077589;28;20051;-60
2023/07/20 03:15:21;;;;;;;10.85;4.43;;;;;;;;;;21078485;28;20523;-60
2023/07/20 03:25:23;;;;;;;12.73;3.65;;;;;;;;;;21082666;28;20100;-60
2023/07/20 03:35:24;;;;;;;13.13;3.95;;;;;;;;;;21092913;28;20070;-60
2023/07/20 03:45:25;;;;;;;8.32;3.00;;;;;;;;;;21090884;28;20101;-60
2023/07/20 03:55:26;;;;;;;9.15;3.50;;;;;;;;;;21090399;28;20054;-60
2023/07/20 04:05:27;;;;;;;11.13;3.65;;;;;;;;;;21089435;28;20052;-60
2023/07/20 04:15:28;;;;;;;13.02;4.30;;;;;;;;;;21090066;28;20044;-60
2023/07/20 04:25:33;;;;;;;11.48;3.63;;;;;;;;;;21089067;28;20073;-61
2023/07/20 04:35:46;;;;;;;10.33;4.43;;;;;;;;;;21087152;28;20509;-61
2023/07/20 04:45:48;;;;;;;9.60;3.70;;;;;;;;;;21086243;28;20059;-61
2023/07/20 04:55:54;;;;;;;10.07;3.33;;;;;;;;;;21086486;28;20442;-60
2023/07/20 05:05:55;;;;;;;9.63;4.70;;;;;;;;;;21085971;28;20119;-60
2023/07/20 05:15:56;;;;;;;13.02;3.97;;;;;;;;;;21085243;28;20123;-60
2023/07/20 05:25:58;;;;;;;14.07;4.68;;;;;;;;;;21084483;28;20123;-61
2023/07/20 05:35:59;;;;;;;14.52;4.88;;;;;;;;;;21083549;28;20511;-62
2023/07/20 05:46:00;;;;;;;12.32;5.28;;;;;;;;;;21080614;28;20119;-60
2023/07/20 05:56:02;;;;;;;10.52;5.00;;;;;;;;;;21081862;28;20044;-61
2023/07/20 06:06:05;;;;;;;9.63;4.82;;;;;;;;;;21081221;28;20044;-60
2023/07/20 06:16:06;;;;;;;14.07;5.50;;;;;;;;;;21079812;28;20051;-61
2023/07/20 06:26:07;;;;;;;15.52;5.82;;;;;;;;;;21080219;28;20044;-61
2023/07/20 06:36:09;;;;;;;17.27;5.85;;;;;;;;;;21078487;28;20052;-60
2023/07/20 06:46:10;;;;;;;17.02;6.13;;;;;;;;;;21080275;28;20131;-60
2023/07/20 06:56:11;;;;;;;18.13;6.07;;;;;;;;;;21079186;28;20048;-60
2023/07/20 07:06:12;;;;;;;15.93;6.13;;;;;;;;;;21092616;28;20050;-61
2023/07/20 07:16:18;;;;;;;11.88;5.47;;;;;;;;;;21093001;28;20055;-60
2023/07/20 07:26:19;;;;;;;16.42;6.20;;;;;;;;;;21091689;28;20044;-61
2023/07/20 07:36:20;;;;;;;13.57;5.85;;;;;;;;;;21092671;28;20512;-60
2023/07/20 07:46:21;;;;;;;13.45;5.50;;;;;;;;;;21090785;28;20051;-60
2023/07/20 07:56:22;;;;;;;18.02;5.80;;;;;;;;;;21090850;28;20499;-61
2023/07/20 08:06:24;;;;;;;13.35;5.28;;;;;;;;;;21089880;28;20047;-62
2023/07/20 08:16:25;;;;;;;9.98;4.88;;;;;;;;;;21089932;28;20044;-60
2023/07/20 08:26:26;;;;;;;9.93;4.72;;;;;;;;;;21087241;28;20046;-59
2023/07/20 08:36:27;;;;;;;12.50;5.20;;;;;;;;;;21086630;28;20135;-60
2023/07/20 08:46:29;;;;;;;7.30;3.95;;;;;;;;;;21085432;28;20056;-62
2023/07/20 08:56:31;;;;;;;8.18;3.85;;;;;;;;;;21086522;28;20119;-63
2023/07/20 09:06:34;;;;;;;6.28;3.63;;;;;;;;;;21085633;28;20047;-61
2023/07/20 09:16:53;;;;;;;6.15;3.78;;;;;;;;;;21084513;28;20052;-62
2023/07/20 09:26:54;;;;;;;10.65;4.60;;;;;;;;;;21083394;28;20048;-62
2023/07/20 09:36:56;;;;;;;4.97;3.50;;;;;;;;;;21083281;28;20047;-63
2023/07/20 09:46:57;;;;;;;10.13;3.20;;;;;;;;;;21081728;28;20087;-63
2023/07/20 09:56:58;;;;;;;7.93;2.90;;;;;;;;;;21082001;28;20394;-63
2023/07/20 10:07:00;;;;;;;7.50;4.00;;;;;;;;;;21081554;28;20123;-63
2023/07/20 10:17:03;;;;;;;6.65;3.17;;;;;;;;;;21080916;28;20040;-63
2023/07/20 10:27:04;;;;;;;7.72;3.30;;;;;;;;;;21080130;28;20040;-63
2023/07/20 10:37:06;;;;;;;14.70;6.60;;;;;;;;;;21086316;28;20048;-63
2023/07/20 10:47:11;;;;;;;8.27;3.22;;;;;;;;;;21095483;28;20077;-63
2023/07/20 10:57:23;;;;;;;6.65;2.85;;;;;;;;;;21095846;28;20044;-63
2023/07/20 11:07:39;;;;;;;13.43;2.97;;;;;;;;;;21093929;28;20177;-62
2023/07/20 11:17:40;;;;;;;10.20;3.28;;;;;;;;;;21093182;28;20043;-64
2023/07/20 11:27:46;;;;;;;7.80;2.53;;;;;;;;;;21092013;28;20068;-63
2023/07/20 11:37:47;;;;;;;11.43;2.90;;;;;;;;;;21089350;28;20074;-63
2023/07/20 11:47:48;;;;;;;5.80;2.70;;;;;;;;;;21092638;28;20603;-63
2023/07/20 11:58:05;;;;;;;8.30;2.65;;;;;;;;;;21091227;28;20457;-63
2023/07/20 12:08:06;;;;;;;8.23;3.22;;;;;;;;;;21090236;28;20051;-62
2023/07/20 12:18:07;;;;;;;8.93;2.97;;;;;;;;;;21089556;28;20048;-62
2023/07/20 12:28:09;;;;;;;9.50;3.08;;;;;;;;;;21088714;28;20115;-63
2023/07/20 12:38:10;;;;;;;8.68;2.95;;;;;;;;;;21087788;28;20119;-62
2023/07/20 12:48:11;;;;;;;5.40;2.63;;;;;;;;;;21087259;28;20124;-63
2023/07/20 12:58:13;;;;;;;7.82;2.67;;;;;;;;;;21085625;28;20071;-63
2023/07/20 13:08:15;;;;;;;7.22;2.30;;;;;;;;;;21084205;28;20043;-63
2023/07/20 13:18:16;;;;;;;5.72;2.17;;;;;;;;;;21084791;28;20503;-63
2023/07/20 13:28:17;;;;;;;4.07;2.60;;;;;;;;;;21082978;28;20047;-62
2023/07/20 13:38:18;;;;;;;6.47;2.60;;;;;;;;;;21083180;28;20105;-62
2023/07/20 13:48:22;;;;;;;3.17;2.00;;;;;;;;;;21081351;28;20048;-63
2023/07/20 13:58:23;;;;;;;4.68;2.83;;;;;;;;;;21082070;28;20485;-62
2023/07/20 14:08:26;;;;;;;6.15;2.40;;;;;;;;;;21035895;28;20059;-73
2023/07/20 14:18:27;;;;;;;5.03;2.53;;;;;;;;;;20984261;28;20053;-63
2023/07/20 14:28:28;;;;;;;10.27;3.65;;;;;;;;;;20986039;28;20076;-69
2023/07/20 14:38:29;;;;;;;5.20;2.92;;;;;;;;;;20984686;28;20049;-62
2023/07/20 14:48:30;;;;;;;5.18;3.08;;;;;;;;;;20985734;28;20060;-69
2023/07/20 14:58:32;;;;;;;4.95;3.42;;;;;;;;;;20985049;28;20402;-61
2023/07/20 15:08:33;;;;;;;8.75;3.78;;;;;;;;;;20984052;28;20045;-73
2023/07/20 15:18:34;;;;;;;6.43;3.55;;;;;;;;;;20981501;28;20366;-63
2023/07/20 15:28:35;;;;;;;7.00;3.92;;;;;;;;;;20996645;28;20052;-64
2023/07/20 15:38:36;;;;;;;6.60;4.05;;;;;;;;;;20996545;28;20168;-66
2023/07/20 15:48:37;;;;;;;5.40;3.63;;;;;;;;;;20993635;28;20044;-61
2023/07/20 15:58:38;;;;;;;5.43;3.53;;;;;;;;;;20998426;28;20168;-76
2023/07/20 16:08:40;;;;;;;7.80;3.70;;;;;;;;;;20996573;28;20044;-65
2023/07/20 16:18:41;;;;;;;6.20;3.67;;;;;;;;;;20994080;28;20045;-71
2023/07/20 16:28:45;;;;;;;5.78;3.35;;;;;;;;;;20995049;28;20051;-67
2023/07/20 16:38:46;;;;;;;4.87;3.40;;;;;;;;;;20996093;28;20049;-63
2023/07/20 16:48:47;;;;;;;3.42;2.92;;;;;;;;;;20995004;28;20051;-63
2023/07/20 16:58:48;;;;;;;4.57;3.08;;;;;;;;;;21000867;28;20044;-63
2023/07/20 17:08:49;;;;;;;4.93;3.03;;;;;;;;;;21000022;28;20127;-63
2023/07/20 17:18:50;;;;;;;5.82;3.42;;;;;;;;;;21002363;28;20052;-63
2023/07/20 17:28:52;;;;;;;6.75;3.58;;;;;;;;;;21000398;28;20424;-63
2023/07/20 17:38:53;;;;;;;6.63;3.35;;;;;;;;;;20999413;28;20391;-64
2023/07/20 17:48:54;;;;;;;4.55;3.50;;;;;;;;;;20996913;28;20045;-63
2023/07/20 17:58:55;;;;;;;5.05;3.42;;;;;;;;;;20998021;28;20072;-63
2023/07/20 18:08:56;;;;;;;7.18;4.28;;;;;;;;;;20997369;28;20124;-63
2023/07/20 18:18:57;;;;;;;5.50;4.13;;;;;;;;;;20996125;28;20048;-63
2023/07/20 18:28:58;;;;;;;8.27;4.22;;;;;;;;;;20995750;28;20142;-63
2023/07/20 18:38:59;;;;;;;7.13;5.10;;;;;;;;;;20996480;28;20056;-63
2023/07/20 18:49:00;;;;;;;8.07;5.93;;;;;;;;;;20994773;28;20056;-64
2023/07/20 18:59:01;;;;;;;8.02;5.32;;;;;;;;;;21004271;28;20052;-63
2023/07/20 19:09:04;;;;;;;7.35;5.00;;;;;;;;;;21011479;28;20040;-63
2023/07/20 19:19:05;;;;;;;5.80;4.78;;;;;;;;;;21009083;28;20127;-64
2023/07/20 19:29:06;;;;;;;7.40;5.80;;;;;;;;;;21009526;28;20497;-63
2023/07/20 19:39:07;;;;;;;8.45;5.25;;;;;;;;;;21007941;28;20521;-63
2023/07/20 19:49:08;;;;;;;5.60;4.97;;;;;;;;;;21006994;28;20086;-63
2023/07/20 19:59:10;;;;;;;7.00;5.47;;;;;;;;;;21007413;28;20048;-63
2023/07/20 20:09:11;;;;;;;8.15;5.05;;;;;;;;;;21005647;28;20044;-62
2023/07/20 20:19:13;;;;;;;6.63;5.45;;;;;;;;;;21005014;28;20044;-62
2023/07/20 20:29:14;;;;;;;6.93;5.30;;;;;;;;;;21004987;28;20052;-63
2023/07/20 20:39:15;;;;;;;10.52;5.28;;;;;;;;;;21004195;28;20413;-63
2023/07/20 20:49:16;;;;;;;7.13;4.53;;;;;;;;;;21003298;28;20050;-64
2023/07/20 20:59:22;;;;;;;8.13;5.03;;;;;;;;;;21001774;28;20041;-62
2023/07/20 21:09:23;;;;;;;6.57;4.78;;;;;;;;;;21002165;28;20041;-62
2023/07/20 21:19:24;;;;;;;9.18;5.38;;;;;;;;;;21000282;28;20125;-63
2023/07/20 21:29:25;;;;;;;6.13;4.53;;;;;;;;;;21000554;28;20044;-63
2023/07/20 21:39:26;;;;;;;6.35;4.30;;;;;;;;;;20998316;28;20060;-62
2023/07/20 21:49:27;;;;;;;5.43;3.95;;;;;;;;;;20999011;28;20053;-63
2023/07/20 21:59:29;;;;;;;7.35;5.05;;;;;;;;;;20998065;28;20406;-63
2023/07/20 22:09:30;;;;;;;6.97;4.18;;;;;;;;;;20997878;28;20119;-63
2023/07/20 22:19:32;;;;;;;5.05;3.97;;;;;;;;;;20997220;28;20364;-64
2023/07/20 22:29:33;;;;;;;5.28;3.80;;;;;;;;;;20996273;28;20044;-63
2023/07/20 22:39:34;;;;;;;6.35;3.88;;;;;;;;;;20994916;28;20060;-64
2023/07/20 22:49:35;;;;;;;5.05;3.65;;;;;;;;;;20994700;28;20052;-63
2023/07/20 22:59:36;;;;;;;5.72;3.78;;;;;;;;;;20994610;28;20055;-63
2023/07/20 23:09:42;;;;;;;10.48;4.60;;;;;;;;;;20994307;28;20079;-63
2023/07/20 23:19:44;;;;;;;8.00;3.90;;;;;;;;;;20994556;28;20367;-63
2023/07/20 23:29:45;;;;;;;5.90;4.00;;;;;;;;;;20993419;28;20047;-63
2023/07/20 23:39:46;;;;;;;9.70;5.13;;;;;;;;;;20993442;28;20064;-63
2023/07/20 23:49:48;;;;;;;8.25;3.92;;;;;;;;;;21007608;28;20044;-61
2023/07/20 23:59:49;;;;;;;6.60;4.20;;;;;;;;;;21007015;28;20409;-63
